Time;durP1;ratioP1;P1;durP2;ratioP2;P2;SDS_P1;SDS_P2;PMS_P1;PMS_P2;Temp;Humidity;BMP_temperature;BMP_pressure;BME280_temperature;BME280_humidity;BME280_pressure;Samples;Min_cycle;Max_cycle;Signal;HPM_P1;HPM_P2
2021/12/20 00:00:57;;;;;;;35.83;4.97;;;;;;;;;;5128385;27;20402;-82
2021/12/20 00:03:23;;;;;;;35.25;4.28;;;;;;;;;;5131815;27;20046;-82
2021/12/20 00:05:49;;;;;;;25.63;4.10;;;;;;;;;;5112620;27;20046;-81
2021/12/20 00:08:15;;;;;;;32.60;4.32;;;;;;;;;;5098639;27;20043;-82
2021/12/20 00:10:41;;;;;;;22.35;3.58;;;;;;;;;;5116393;27;20038;-82
2021/12/20 00:13:07;;;;;;;30.00;4.88;;;;;;;;;;5122366;27;20495;-85
2021/12/20 00:15:33;;;;;;;27.15;4.88;;;;;;;;;;5074953;28;20046;-82
2021/12/20 00:17:59;;;;;;;23.02;4.00;;;;;;;;;;5089952;28;20067;-81
2021/12/20 00:20:25;;;;;;;26.95;3.92;;;;;;;;;;5085300;28;20051;-83
2021/12/20 00:22:51;;;;;;;27.63;4.15;;;;;;;;;;5086946;28;20044;-81
2021/12/20 00:25:18;;;;;;;29.50;3.50;;;;;;;;;;5090901;27;20055;-82
2021/12/20 00:27:44;;;;;;;31.25;4.32;;;;;;;;;;5093452;28;20470;-81
2021/12/20 00:30:10;;;;;;;26.70;4.80;;;;;;;;;;5099563;28;20043;-81
2021/12/20 00:32:36;;;;;;;23.67;4.22;;;;;;;;;;5099147;28;20047;-80
2021/12/20 00:35:03;;;;;;;22.55;3.40;;;;;;;;;;5087645;27;20056;-77
2021/12/20 00:40:23;;;;;;;24.38;3.63;;;;;;;;;;5085628;28;20078;-79
2021/12/20 00:42:55;;;;;;;30.58;4.50;;;;;;;;;;5088476;28;20055;-79
2021/12/20 00:45:22;;;;;;;31.58;3.95;;;;;;;;;;5101368;28;20077;-79
2021/12/20 00:47:48;;;;;;;19.60;3.53;;;;;;;;;;5106453;28;20051;-80
2021/12/20 00:50:16;;;;;;;17.92;2.97;;;;;;;;;;5105894;28;20153;-79
2021/12/20 00:52:42;;;;;;;23.38;4.43;;;;;;;;;;5103515;28;20088;-80
2021/12/20 00:55:09;;;;;;;27.30;3.80;;;;;;;;;;5097398;28;20048;-79
2021/12/20 00:57:35;;;;;;;21.08;3.05;;;;;;;;;;5081646;28;20048;-79
2021/12/20 01:00:01;;;;;;;20.90;3.47;;;;;;;;;;5089675;28;20146;-79
2021/12/20 01:02:27;;;;;;;19.17;4.05;;;;;;;;;;5085259;28;20040;-79
2021/12/20 01:04:53;;;;;;;22.63;2.85;;;;;;;;;;5070367;28;20115;-79
2021/12/20 01:07:19;;;;;;;29.05;4.13;;;;;;;;;;5103858;28;20044;-79
2021/12/20 01:09:45;;;;;;;24.02;3.45;;;;;;;;;;5094451;27;20052;-79
2021/12/20 01:12:18;;;;;;;25.48;2.65;;;;;;;;;;5074791;28;20534;-79
2021/12/20 01:14:44;;;;;;;23.77;3.85;;;;;;;;;;5147501;27;20413;-79
2021/12/20 01:17:10;;;;;;;22.40;2.97;;;;;;;;;;5119797;27;20044;-79
2021/12/20 01:19:37;;;;;;;20.27;3.30;;;;;;;;;;5111849;27;20542;-79
2021/12/20 01:22:04;;;;;;;17.20;3.17;;;;;;;;;;5126079;27;20074;-79
2021/12/20 01:24:30;;;;;;;19.35;3.25;;;;;;;;;;5094688;27;20040;-79
2021/12/20 01:26:56;;;;;;;18.20;2.58;;;;;;;;;;5102766;27;20051;-79
2021/12/20 01:29:23;;;;;;;20.48;3.38;;;;;;;;;;5111014;27;20068;-78
2021/12/20 01:31:49;;;;;;;25.67;3.88;;;;;;;;;;5107474;27;20051;-79
2021/12/20 01:34:15;;;;;;;24.98;4.75;;;;;;;;;;5128029;27;20078;-79
2021/12/20 01:36:42;;;;;;;18.42;4.00;;;;;;;;;;5105650;27;20491;-79
2021/12/20 01:39:08;;;;;;;13.23;2.72;;;;;;;;;;5099596;27;20462;-79
2021/12/20 01:41:39;;;;;;;25.42;2.83;;;;;;;;;;5122844;27;20169;-79
2021/12/20 01:44:05;;;;;;;17.77;2.22;;;;;;;;;;5117492;27;20036;-80
2021/12/20 01:46:31;;;;;;;25.15;3.42;;;;;;;;;;5088791;27;20043;-79
2021/12/20 01:48:59;;;;;;;18.60;2.70;;;;;;;;;;5104681;27;20096;-79
2021/12/20 01:54:03;;;;;;;15.30;2.95;;;;;;;;;;5142883;27;20047;-79
2021/12/20 01:56:31;;;;;;;17.05;2.05;;;;;;;;;;5125732;27;20039;-79
2021/12/20 01:59:02;;;;;;;19.38;2.40;;;;;;;;;;5109838;27;20042;-80
2021/12/20 02:01:28;;;;;;;17.02;2.45;;;;;;;;;;5107888;27;20103;-80
2021/12/20 02:04:00;;;;;;;14.65;2.40;;;;;;;;;;5118386;27;20044;-80
2021/12/20 02:08:55;;;;;;;20.98;2.83;;;;;;;;;;5121307;27;20547;-80
2021/12/20 02:11:21;;;;;;;14.68;2.75;;;;;;;;;;5141182;27;20039;-80
2021/12/20 02:13:48;;;;;;;16.17;2.72;;;;;;;;;;5107887;27;20490;-80
2021/12/20 02:16:14;;;;;;;20.70;3.80;;;;;;;;;;5103840;28;20071;-80
2021/12/20 02:18:40;;;;;;;13.90;2.85;;;;;;;;;;5098787;28;20082;-80
2021/12/20 02:21:06;;;;;;;12.48;2.63;;;;;;;;;;5080326;28;20121;-80
2021/12/20 02:23:32;;;;;;;18.83;2.25;;;;;;;;;;5079409;28;20039;-80
2021/12/20 02:26:00;;;;;;;20.88;2.35;;;;;;;;;;5104358;28;20135;-80
2021/12/20 02:28:28;;;;;;;19.27;2.92;;;;;;;;;;5084664;28;20131;-79
2021/12/20 02:39:14;;;;;;;19.30;2.47;;;;;;;;;;5097400;28;20058;-80
2021/12/20 02:41:41;;;;;;;16.70;2.30;;;;;;;;;;5098971;28;20127;-80
2021/12/20 02:44:15;;;;;;;14.27;2.53;;;;;;;;;;5089272;28;20042;-80
2021/12/20 02:49:09;;;;;;;10.93;1.70;;;;;;;;;;5095138;28;20061;-80
2021/12/20 02:51:35;;;;;;;16.35;2.30;;;;;;;;;;5101553;28;20051;-79
2021/12/20 02:54:05;;;;;;;12.95;2.28;;;;;;;;;;5098161;28;20043;-79
2021/12/20 02:56:31;;;;;;;14.75;2.10;;;;;;;;;;5106902;28;20044;-80
2021/12/20 02:58:57;;;;;;;15.40;2.47;;;;;;;;;;5101260;28;20051;-79
2021/12/20 03:01:23;;;;;;;15.68;2.90;;;;;;;;;;5097308;28;20047;-79
2021/12/20 03:03:50;;;;;;;21.10;3.42;;;;;;;;;;5084599;28;20039;-79
2021/12/20 03:06:18;;;;;;;17.00;2.47;;;;;;;;;;5103611;28;20410;-79
2021/12/20 03:08:47;;;;;;;21.45;2.70;;;;;;;;;;5104217;28;20545;-79
2021/12/20 03:11:13;;;;;;;15.98;1.92;;;;;;;;;;5097940;28;20051;-77
2021/12/20 03:13:40;;;;;;;12.55;1.83;;;;;;;;;;5095920;28;20055;-80
2021/12/20 03:16:06;;;;;;;15.95;2.28;;;;;;;;;;5088872;28;20053;-79
2021/12/20 03:18:32;;;;;;;15.45;2.60;;;;;;;;;;5098759;28;20402;-79
2021/12/20 03:20:58;;;;;;;13.63;2.05;;;;;;;;;;5102915;28;20372;-79
2021/12/20 03:23:24;;;;;;;19.45;2.15;;;;;;;;;;5101217;28;20036;-79
2021/12/20 03:25:50;;;;;;;17.65;2.80;;;;;;;;;;5076620;28;20044;-79
2021/12/20 03:28:16;;;;;;;18.45;2.13;;;;;;;;;;5107668;28;20616;-79
2021/12/20 03:30:44;;;;;;;15.73;2.33;;;;;;;;;;5103499;28;20052;-80
2021/12/20 03:33:10;;;;;;;13.40;2.22;;;;;;;;;;5084493;28;20051;-79
2021/12/20 03:35:36;;;;;;;16.30;2.42;;;;;;;;;;5102888;28;20039;-79
2021/12/20 03:38:02;;;;;;;17.92;3.33;;;;;;;;;;5094130;28;20042;-79
2021/12/20 03:40:28;;;;;;;18.35;2.25;;;;;;;;;;5107241;28;20088;-81
2021/12/20 03:42:55;;;;;;;14.00;2.67;;;;;;;;;;5097434;28;20032;-79
2021/12/20 03:45:21;;;;;;;20.05;2.42;;;;;;;;;;5089852;28;20043;-79
2021/12/20 03:47:47;;;;;;;15.98;2.60;;;;;;;;;;5104907;28;20047;-79
2021/12/20 03:50:14;;;;;;;23.67;4.43;;;;;;;;;;5076951;28;20062;-79
2021/12/20 03:52:40;;;;;;;18.02;2.53;;;;;;;;;;5102244;28;20535;-79
2021/12/20 03:55:07;;;;;;;11.65;2.17;;;;;;;;;;5088218;28;20410;-80
2021/12/20 03:57:33;;;;;;;14.52;2.17;;;;;;;;;;5076253;28;20078;-79
2021/12/20 03:59:59;;;;;;;13.80;2.45;;;;;;;;;;5074299;28;20113;-79
2021/12/20 04:02:26;;;;;;;17.52;2.53;;;;;;;;;;5103399;28;20130;-80
2021/12/20 04:04:52;;;;;;;23.13;2.15;;;;;;;;;;5085553;28;20394;-80
2021/12/20 04:07:19;;;;;;;20.45;2.78;;;;;;;;;;5108017;28;20050;-79
2021/12/20 04:09:45;;;;;;;20.65;1.98;;;;;;;;;;5086446;28;20044;-79
2021/12/20 04:12:11;;;;;;;14.45;2.10;;;;;;;;;;5101715;28;20051;-80
2021/12/20 04:14:37;;;;;;;11.85;2.30;;;;;;;;;;5080241;28;20862;-79
2021/12/20 04:17:03;;;;;;;18.08;2.08;;;;;;;;;;5101401;27;20051;-79
2021/12/20 04:19:29;;;;;;;13.52;2.28;;;;;;;;;;5100233;28;20044;-80
2021/12/20 04:21:55;;;;;;;13.32;2.15;;;;;;;;;;5106004;28;20078;-79
2021/12/20 04:24:21;;;;;;;14.32;1.80;;;;;;;;;;5080625;28;20230;-79
2021/12/20 04:26:47;;;;;;;11.88;2.45;;;;;;;;;;5079780;28;20379;-79
2021/12/20 04:29:13;;;;;;;16.85;2.33;;;;;;;;;;5096792;28;20113;-79
2021/12/20 04:31:39;;;;;;;14.70;2.05;;;;;;;;;;5101369;28;20036;-79
2021/12/20 04:34:05;;;;;;;15.02;2.33;;;;;;;;;;5095849;28;20055;-79
2021/12/20 04:36:33;;;;;;;13.73;3.08;;;;;;;;;;5095798;28;20036;-79
2021/12/20 04:39:01;;;;;;;13.13;2.13;;;;;;;;;;5100454;28;20474;-79
2021/12/20 04:41:27;;;;;;;11.27;1.70;;;;;;;;;;5074028;28;20173;-79
2021/12/20 04:43:53;;;;;;;14.35;1.70;;;;;;;;;;5099951;28;20047;-79
2021/12/20 04:46:19;;;;;;;13.52;2.30;;;;;;;;;;5103420;28;20039;-79
2021/12/20 04:48:45;;;;;;;13.57;2.45;;;;;;;;;;5096560;28;20040;-79
2021/12/20 04:51:11;;;;;;;9.85;2.05;;;;;;;;;;5094342;28;20407;-80
2021/12/20 04:53:37;;;;;;;20.23;2.47;;;;;;;;;;5060100;28;20502;-79
2021/12/20 04:56:03;;;;;;;11.95;1.48;;;;;;;;;;5081786;28;20126;-79
2021/12/20 04:58:29;;;;;;;11.43;2.60;;;;;;;;;;5085355;28;20074;-79
2021/12/20 05:00:55;;;;;;;18.83;3.20;;;;;;;;;;5097725;28;20036;-79
2021/12/20 05:03:21;;;;;;;12.90;3.13;;;;;;;;;;5080464;28;20046;-79
2021/12/20 05:05:47;;;;;;;13.40;3.08;;;;;;;;;;5081339;28;20433;-78
2021/12/20 05:08:15;;;;;;;18.77;3.00;;;;;;;;;;5094689;28;20044;-78
2021/12/20 05:10:42;;;;;;;12.32;1.85;;;;;;;;;;5093135;28;20036;-78
2021/12/20 05:13:09;;;;;;;14.32;2.53;;;;;;;;;;5099973;28;20147;-79
2021/12/20 05:15:36;;;;;;;17.65;2.30;;;;;;;;;;5079230;28;20047;-79
2021/12/20 05:18:02;;;;;;;14.95;2.38;;;;;;;;;;5096725;28;20051;-78
2021/12/20 05:20:28;;;;;;;12.52;1.88;;;;;;;;;;5097429;28;20397;-79
2021/12/20 05:22:55;;;;;;;12.65;1.92;;;;;;;;;;5084301;28;20055;-79
2021/12/20 05:25:21;;;;;;;13.43;2.67;;;;;;;;;;5101722;28;20081;-78
2021/12/20 05:27:47;;;;;;;11.50;2.60;;;;;;;;;;5073482;28;20101;-78
2021/12/20 05:30:14;;;;;;;21.27;2.50;;;;;;;;;;5096176;28;20051;-78
2021/12/20 05:32:40;;;;;;;17.15;3.95;;;;;;;;;;5105454;28;20043;-79
2021/12/20 05:35:07;;;;;;;19.67;2.53;;;;;;;;;;5103773;28;20494;-78
2021/12/20 05:37:33;;;;;;;21.95;2.80;;;;;;;;;;5098091;28;20036;-79
2021/12/20 05:40:00;;;;;;;20.13;3.60;;;;;;;;;;5078858;28;20482;-74
2021/12/20 05:42:26;;;;;;;16.40;2.28;;;;;;;;;;5084306;27;20113;-79
2021/12/20 05:44:52;;;;;;;15.48;2.55;;;;;;;;;;5113875;27;20069;-79
2021/12/20 05:47:19;;;;;;;15.50;2.40;;;;;;;;;;5087614;28;20047;-78
2021/12/20 05:49:45;;;;;;;11.57;2.58;;;;;;;;;;5102988;28;20040;-78
2021/12/20 05:52:11;;;;;;;16.75;2.67;;;;;;;;;;5109843;28;20039;-80
2021/12/20 05:54:37;;;;;;;14.52;2.38;;;;;;;;;;5077741;28;20040;-77
2021/12/20 05:57:03;;;;;;;15.55;2.20;;;;;;;;;;5102519;28;20059;-78
2021/12/20 05:59:29;;;;;;;14.00;2.30;;;;;;;;;;5097500;28;20518;-78
2021/12/20 06:01:55;;;;;;;13.55;2.45;;;;;;;;;;5098674;28;20039;-78
2021/12/20 06:04:21;;;;;;;16.98;2.85;;;;;;;;;;5109295;27;20043;-78
2021/12/20 06:06:47;;;;;;;19.10;2.58;;;;;;;;;;5091887;28;20039;-78
2021/12/20 06:09:14;;;;;;;11.77;1.98;;;;;;;;;;5103882;27;20051;-78
2021/12/20 06:11:40;;;;;;;18.15;2.10;;;;;;;;;;5109279;27;20070;-80
2021/12/20 06:14:06;;;;;;;23.15;3.42;;;;;;;;;;5096528;28;20055;-78
2021/12/20 06:16:32;;;;;;;15.00;2.42;;;;;;;;;;5081461;28;20047;-77
2021/12/20 06:18:58;;;;;;;22.30;3.55;;;;;;;;;;5093574;28;20048;-78
2021/12/20 06:21:24;;;;;;;15.60;2.45;;;;;;;;;;5096061;28;21618;-78
2021/12/20 06:23:50;;;;;;;17.20;2.10;;;;;;;;;;5068133;28;20036;-78
2021/12/20 06:26:16;;;;;;;14.23;2.28;;;;;;;;;;5098339;28;20062;-80
2021/12/20 06:28:43;;;;;;;12.85;2.40;;;;;;;;;;5087512;28;20043;-78
2021/12/20 06:31:09;;;;;;;17.25;3.20;;;;;;;;;;5090538;28;20063;-78
2021/12/20 06:33:35;;;;;;;13.68;2.33;;;;;;;;;;5097436;27;20483;-78
2021/12/20 06:36:01;;;;;;;9.77;2.15;;;;;;;;;;5091150;28;20048;-78
2021/12/20 06:38:27;;;;;;;17.40;2.70;;;;;;;;;;5085438;28;20383;-78
2021/12/20 06:40:54;;;;;;;12.02;2.05;;;;;;;;;;5092622;28;20036;-79
2021/12/20 06:43:20;;;;;;;14.55;2.53;;;;;;;;;;5079008;28;20078;-79
2021/12/20 06:45:47;;;;;;;19.00;2.90;;;;;;;;;;5078727;28;20044;-78
2021/12/20 06:48:13;;;;;;;19.38;3.78;;;;;;;;;;5086285;28;20065;-79
2021/12/20 06:50:39;;;;;;;14.95;2.65;;;;;;;;;;5081699;28;20131;-76
2021/12/20 06:53:06;;;;;;;22.65;3.95;;;;;;;;;;5070922;28;20050;-77
2021/12/20 06:55:32;;;;;;;16.48;2.67;;;;;;;;;;5090530;28;20039;-76
2021/12/20 06:57:58;;;;;;;15.38;3.08;;;;;;;;;;5089127;28;20117;-80
2021/12/20 07:00:24;;;;;;;15.18;2.85;;;;;;;;;;5065605;28;21315;-81
2021/12/20 07:02:50;;;;;;;11.80;2.60;;;;;;;;;;5090143;28;20039;-81
2021/12/20 07:05:16;;;;;;;14.82;2.95;;;;;;;;;;5090240;28;20047;-79
2021/12/20 07:07:43;;;;;;;10.80;2.55;;;;;;;;;;5103806;28;20047;-80
2021/12/20 07:10:09;;;;;;;16.17;3.30;;;;;;;;;;5097674;28;20050;-79
2021/12/20 07:12:37;;;;;;;13.90;2.88;;;;;;;;;;5083378;28;20482;-79
2021/12/20 07:15:04;;;;;;;14.88;2.85;;;;;;;;;;5090923;28;20056;-79
2021/12/20 07:17:30;;;;;;;15.23;3.13;;;;;;;;;;5075419;28;20542;-79
2021/12/20 07:19:58;;;;;;;18.48;3.42;;;;;;;;;;5069875;28;20131;-78
2021/12/20 07:22:24;;;;;;;30.05;4.82;;;;;;;;;;5084450;28;20500;-79
2021/12/20 07:24:50;;;;;;;23.33;4.00;;;;;;;;;;5089830;28;20079;-77
2021/12/20 07:27:20;;;;;;;15.30;3.45;;;;;;;;;;5078092;28;20067;-78
2021/12/20 07:29:46;;;;;;;21.27;3.45;;;;;;;;;;5101282;28;20040;-77
2021/12/20 07:32:12;;;;;;;18.25;3.78;;;;;;;;;;5083756;28;20180;-78
2021/12/20 07:34:39;;;;;;;12.57;4.10;;;;;;;;;;5082674;28;20475;-78
2021/12/20 07:37:06;;;;;;;13.80;3.35;;;;;;;;;;5075282;28;20111;-77
2021/12/20 07:39:32;;;;;;;19.35;4.07;;;;;;;;;;5086927;28;20044;-79
2021/12/20 07:41:59;;;;;;;16.98;4.13;;;;;;;;;;5085800;28;20118;-78
2021/12/20 07:44:26;;;;;;;13.50;3.22;;;;;;;;;;5098008;28;20036;-78
2021/12/20 07:46:52;;;;;;;19.63;3.72;;;;;;;;;;5070648;28;20051;-78
2021/12/20 07:49:18;;;;;;;20.98;4.95;;;;;;;;;;5087270;28;20048;-79
2021/12/20 07:51:45;;;;;;;24.33;4.35;;;;;;;;;;5093759;28;20040;-78
2021/12/20 07:54:11;;;;;;;21.77;3.95;;;;;;;;;;5092516;28;20060;-78
2021/12/20 07:56:37;;;;;;;18.25;3.63;;;;;;;;;;5094623;28;20048;-78
2021/12/20 07:59:03;;;;;;;16.70;4.78;;;;;;;;;;5082012;28;20048;-78
2021/12/20 08:01:31;;;;;;;17.52;3.97;;;;;;;;;;5097175;28;20094;-78
2021/12/20 08:03:57;;;;;;;22.45;5.97;;;;;;;;;;5075520;28;20040;-81
2021/12/20 08:06:23;;;;;;;21.10;3.67;;;;;;;;;;5100717;28;20051;-78
2021/12/20 08:08:49;;;;;;;19.45;3.65;;;;;;;;;;5103007;28;20126;-79
2021/12/20 08:11:15;;;;;;;14.68;3.85;;;;;;;;;;5081889;28;20622;-79
2021/12/20 08:13:44;;;;;;;18.45;3.55;;;;;;;;;;5100099;27;20558;-79
2021/12/20 08:16:14;;;;;;;17.92;4.18;;;;;;;;;;5077494;28;20067;-79
2021/12/20 08:18:44;;;;;;;20.23;4.00;;;;;;;;;;5102234;28;20126;-79
2021/12/20 08:21:11;;;;;;;17.88;3.90;;;;;;;;;;5093367;28;20058;-78
2021/12/20 08:23:38;;;;;;;20.30;3.33;;;;;;;;;;5095649;28;20079;-79
2021/12/20 08:26:04;;;;;;;16.75;3.88;;;;;;;;;;5099860;28;20538;-79
2021/12/20 08:28:31;;;;;;;15.38;4.32;;;;;;;;;;5078486;28;20483;-80
2021/12/20 08:30:57;;;;;;;18.13;3.92;;;;;;;;;;5097761;28;20051;-82
2021/12/20 08:33:23;;;;;;;25.65;5.53;;;;;;;;;;5107704;28;20048;-80
2021/12/20 08:35:50;;;;;;;15.63;5.10;;;;;;;;;;5097737;27;20474;-78
2021/12/20 08:38:19;;;;;;;24.08;4.82;;;;;;;;;;5068546;28;20051;-79
2021/12/20 08:40:47;;;;;;;17.90;5.25;;;;;;;;;;5106904;27;20478;-78
2021/12/20 08:43:14;;;;;;;16.92;4.68;;;;;;;;;;5095876;27;20047;-77
2021/12/20 08:45:40;;;;;;;19.65;5.05;;;;;;;;;;5071701;27;20040;-78
2021/12/20 08:48:06;;;;;;;14.40;4.45;;;;;;;;;;5088433;28;20402;-83
2021/12/20 08:50:32;;;;;;;17.88;4.75;;;;;;;;;;5086161;28;20071;-76
2021/12/20 08:52:58;;;;;;;18.35;4.93;;;;;;;;;;5101004;28;20040;-78
2021/12/20 08:55:25;;;;;;;27.08;5.30;;;;;;;;;;5100475;27;20142;-78
2021/12/20 08:57:51;;;;;;;12.27;3.97;;;;;;;;;;5107009;27;20599;-77
2021/12/20 09:00:21;;;;;;;14.05;4.35;;;;;;;;;;5070974;28;20209;-77
2021/12/20 09:02:47;;;;;;;24.80;5.97;;;;;;;;;;5086229;28;20513;-76
2021/12/20 09:05:13;;;;;;;15.20;5.68;;;;;;;;;;5080462;28;20141;-80
2021/12/20 09:07:41;;;;;;;20.50;5.90;;;;;;;;;;5082355;28;20391;-78
2021/12/20 09:10:08;;;;;;;21.33;6.53;;;;;;;;;;5073592;28;20055;-79
2021/12/20 09:12:34;;;;;;;26.60;5.95;;;;;;;;;;5067705;28;20154;-78
2021/12/20 09:15:00;;;;;;;26.40;6.57;;;;;;;;;;5080976;28;20051;-79
2021/12/20 09:17:26;;;;;;;21.27;6.03;;;;;;;;;;5103205;27;20176;-77
2021/12/20 09:19:53;;;;;;;16.50;4.85;;;;;;;;;;5095854;28;20040;-75
2021/12/20 09:22:25;;;;;;;20.42;5.93;;;;;;;;;;5099184;28;21563;-76
2021/12/20 09:24:51;;;;;;;21.05;6.07;;;;;;;;;;5090409;28;20050;-80
2021/12/20 09:27:17;;;;;;;19.35;6.03;;;;;;;;;;5096828;28;20511;-75
2021/12/20 09:29:43;;;;;;;19.33;5.18;;;;;;;;;;5082687;28;20189;-76
2021/12/20 09:32:10;;;;;;;19.77;5.35;;;;;;;;;;5094232;28;20098;-77
2021/12/20 09:34:36;;;;;;;22.20;5.07;;;;;;;;;;5097992;28;20047;-76
2021/12/20 09:37:05;;;;;;;22.13;4.85;;;;;;;;;;5081197;28;20126;-79
2021/12/20 09:39:32;;;;;;;24.90;5.43;;;;;;;;;;5104774;28;20434;-79
2021/12/20 09:42:01;;;;;;;27.63;8.20;;;;;;;;;;5098043;28;20036;-77
2021/12/20 09:44:27;;;;;;;;;;;;;;;;;;5097110;28;20140;-75
2021/12/20 09:46:53;;;;;;;;;;;;;;;;;;5086067;28;20046;-75
2021/12/20 09:49:19;;;;;;;;;;;;;;;;;;5097766;28;21933;-77
2021/12/20 09:51:45;;;;;;;;;;;;;;;;;;5097540;28;19928;-78
2021/12/20 09:54:11;;;;;;;;;;;;;;;;;;5129661;27;19973;-76
2021/12/20 09:56:38;;;;;;;;;;;;;;;;;;5099428;27;19931;-77
2021/12/20 09:59:04;;;;;;;;;;;;;;;;;;5107205;28;20328;-77
2021/12/20 10:01:30;;;;;;;;;;;;;;;;;;5091400;28;19928;-76
2021/12/20 10:03:56;;;;;;;;;;;;;;;;;;5096691;28;19973;-77
2021/12/20 10:06:22;;;;;;;;;;;;;;;;;;5099559;28;19932;-78
2021/12/20 10:09:04;;;;;;;;;;;;;;;;;;5127062;27;19963;-77
2021/12/20 10:11:30;;;;;;;;;;;;;;;;;;5126260;27;19928;-79
2021/12/20 10:13:56;;;;;;;;;;;;;;;;;;5082870;28;19946;-78
2021/12/20 10:16:22;;;;;;;;;;;;;;;;;;5083442;28;19920;-77
2021/12/20 10:18:48;;;;;;;;;;;;;;;;;;5075387;28;20014;-78
2021/12/20 10:21:14;;;;;;;;;;;;;;;;;;5128498;27;19920;-77
2021/12/20 10:23:40;;;;;;;;;;;;;;;;;;5091191;28;19927;-77
2021/12/20 10:26:08;;;;;;;;;;;;;;;;;;5084078;28;20294;-78
2021/12/20 10:28:35;;;;;;;36.75;5.35;;;;;;;;;;5087086;28;19927;-78
2021/12/20 10:31:04;;;;;;;33.53;5.90;;;;;;;;;;5074008;28;20036;-79
2021/12/20 10:33:30;;;;;;;29.27;5.78;;;;;;;;;;5101422;28;20514;-78
2021/12/20 10:35:57;;;;;;;37.50;5.55;;;;;;;;;;5091662;28;20063;-78
2021/12/20 10:38:23;;;;;;;33.83;6.70;;;;;;;;;;5096574;28;20061;-80
2021/12/20 10:40:49;;;;;;;34.42;5.80;;;;;;;;;;5100849;28;20083;-83
2021/12/20 10:43:21;;;;;;;33.42;5.35;;;;;;;;;;5087079;28;20044;-80
2021/12/20 10:45:47;;;;;;;32.03;6.38;;;;;;;;;;5102918;28;20390;-80
2021/12/20 10:48:13;;;;;;;33.28;6.05;;;;;;;;;;5085288;28;20501;-79
2021/12/20 10:50:44;;;;;;;40.88;7.65;;;;;;;;;;5098094;28;20100;-79
2021/12/20 10:53:23;;;;;;;30.45;5.95;;;;;;;;;;5107857;28;20177;-80
2021/12/20 10:55:54;;;;;;;34.92;6.90;;;;;;;;;;5100898;28;20047;-80
2021/12/20 10:58:30;;;;;;;37.72;7.03;;;;;;;;;;5085746;28;20075;-80
2021/12/20 11:01:21;;;;;;;30.92;7.10;;;;;;;;;;5081165;28;20107;-80
2021/12/20 11:03:55;;;;;;;38.50;6.47;;;;;;;;;;5098267;28;20043;-80
2021/12/20 11:09:07;;;;;;;39.13;5.45;;;;;;;;;;5098249;28;19928;-81
2021/12/20 11:11:39;;;;;;;34.63;5.75;;;;;;;;;;5096955;28;20137;-78
2021/12/20 11:14:06;;;;;;;32.30;5.20;;;;;;;;;;5087861;28;20081;-78
2021/12/20 11:16:34;;;;;;;29.48;4.68;;;;;;;;;;5097967;28;20394;-79
2021/12/20 11:19:12;;;;;;;31.70;4.70;;;;;;;;;;5115387;28;20401;-80
2021/12/20 11:21:44;;;;;;;28.05;4.90;;;;;;;;;;5105434;28;20051;-80
2021/12/20 11:24:15;;;;;;;30.45;5.97;;;;;;;;;;5123200;28;20032;-81
2021/12/20 11:26:42;;;;;;;31.30;6.85;;;;;;;;;;5098431;28;20039;-81
2021/12/20 11:29:09;;;;;;;31.10;4.85;;;;;;;;;;5118030;28;20043;-80
2021/12/20 11:31:35;;;;;;;37.65;5.47;;;;;;;;;;5136023;27;20035;-81
2021/12/20 11:34:02;;;;;;;35.92;5.90;;;;;;;;;;5101114;28;20053;-83
2021/12/20 11:36:28;;;;;;;32.17;5.43;;;;;;;;;;5097578;28;20081;-77
2021/12/20 11:38:54;;;;;;;36.05;4.90;;;;;;;;;;5114363;27;20078;-79
2021/12/20 11:41:21;;;;;;;38.22;5.72;;;;;;;;;;5120530;28;20096;-84
2021/12/20 11:43:47;;;;;;;32.60;4.80;;;;;;;;;;5125792;27;20058;-79
2021/12/20 11:46:14;;;;;;;41.22;5.45;;;;;;;;;;5125471;27;20054;-82
2021/12/20 11:48:42;;;;;;;36.55;4.88;;;;;;;;;;5119424;27;20043;-77
2021/12/20 11:51:08;;;;;;;28.10;4.53;;;;;;;;;;5097801;27;20043;-78
2021/12/20 11:53:40;;;;;;;27.17;5.25;;;;;;;;;;5106492;27;20051;-78
2021/12/20 11:56:06;;;;;;;24.15;4.63;;;;;;;;;;5121441;27;20460;-77
2021/12/20 11:58:33;;;;;;;24.90;4.82;;;;;;;;;;5122842;27;20110;-77
2021/12/20 12:01:01;;;;;;;24.85;3.97;;;;;;;;;;5107051;27;20154;-80
2021/12/20 12:03:28;;;;;;;29.15;4.40;;;;;;;;;;5128293;27;20072;-76
2021/12/20 12:05:55;;;;;;;21.75;3.15;;;;;;;;;;5120735;27;21631;-78
2021/12/20 12:08:21;;;;;;;23.58;4.03;;;;;;;;;;5110191;27;20043;-77
2021/12/20 12:10:48;;;;;;;24.77;5.28;;;;;;;;;;5130498;27;20150;-78
2021/12/20 12:13:18;;;;;;;28.85;4.45;;;;;;;;;;5127081;27;20044;-81
2021/12/20 12:16:02;;;;;;;15.98;2.95;;;;;;;;;;5140204;27;20098;-79
2021/12/20 12:18:44;;;;;;;22.33;3.60;;;;;;;;;;5119302;27;20537;-79
2021/12/20 12:21:30;;;;;;;15.30;3.50;;;;;;;;;;5131159;27;20501;-79
2021/12/20 12:23:56;;;;;;;28.80;4.50;;;;;;;;;;5116388;27;20077;-78
2021/12/20 12:26:42;;;;;;;19.88;3.47;;;;;;;;;;5128839;27;20042;-83
2021/12/20 12:29:16;;;;;;;21.05;3.70;;;;;;;;;;5166301;27;20138;-79
2021/12/20 12:32:00;;;;;;;11.57;2.38;;;;;;;;;;5130501;27;20050;-82
2021/12/20 12:34:37;;;;;;;12.52;2.72;;;;;;;;;;5132426;27;20144;-82
2021/12/20 12:37:27;;;;;;;17.65;3.50;;;;;;;;;;5133382;27;20604;-79
2021/12/20 12:40:13;;;;;;;20.67;2.97;;;;;;;;;;5135128;27;20051;-82
2021/12/20 12:42:47;;;;;;;14.95;3.08;;;;;;;;;;5130209;27;20055;-79
2021/12/20 12:45:16;;;;;;;15.90;2.90;;;;;;;;;;5131921;27;20050;-79
2021/12/20 12:47:42;;;;;;;13.57;4.07;;;;;;;;;;5134522;27;20224;-80
2021/12/20 12:50:24;;;;;;;25.50;4.75;;;;;;;;;;5131640;27;20046;-81
2021/12/20 12:52:50;;;;;;;22.80;3.85;;;;;;;;;;5137457;27;20067;-81
2021/12/20 12:55:25;;;;;;;18.25;3.03;;;;;;;;;;5130592;27;20050;-81
2021/12/20 12:57:51;;;;;;;20.83;3.30;;;;;;;;;;5133226;27;20038;-79
2021/12/20 13:00:25;;;;;;;25.10;4.80;;;;;;;;;;5122849;27;20058;-81
2021/12/20 13:02:54;;;;;;;17.17;3.35;;;;;;;;;;5133672;27;20134;-82
2021/12/20 13:05:26;;;;;;;22.85;2.83;;;;;;;;;;5130088;27;20096;-80
2021/12/20 13:07:58;;;;;;;22.65;3.72;;;;;;;;;;5134027;27;20505;-80
2021/12/20 13:13:31;;;;;;;25.08;3.88;;;;;;;;;;5119383;27;20042;-80
2021/12/20 13:16:04;;;;;;;18.40;3.05;;;;;;;;;;5132481;27;20047;-80
2021/12/20 13:18:32;;;;;;;16.90;3.10;;;;;;;;;;5161312;27;20078;-80
2021/12/20 13:21:02;;;;;;;17.45;2.58;;;;;;;;;;5118785;27;20057;-80
2021/12/20 13:23:31;;;;;;;13.68;2.85;;;;;;;;;;5112385;27;20036;-82
2021/12/20 13:25:57;;;;;;;13.13;3.00;;;;;;;;;;5114768;27;20566;-81
2021/12/20 13:28:31;;;;;;;14.00;2.00;;;;;;;;;;5111893;27;20477;-80
2021/12/20 13:30:58;;;;;;;16.30;3.55;;;;;;;;;;5131167;27;20402;-81
2021/12/20 13:33:29;;;;;;;12.75;2.25;;;;;;;;;;5129099;27;20043;-81
2021/12/20 13:35:56;;;;;;;19.15;2.35;;;;;;;;;;5134655;27;20047;-82
2021/12/20 13:38:24;;;;;;;10.02;1.77;;;;;;;;;;5128666;27;20050;-81
2021/12/20 13:40:50;;;;;;;9.32;1.83;;;;;;;;;;5113619;27;20129;-81
2021/12/20 13:43:20;;;;;;;12.07;1.90;;;;;;;;;;5114727;27;20065;-81
2021/12/20 13:46:05;;;;;;;11.10;2.08;;;;;;;;;;5116702;27;20046;-81
2021/12/20 13:48:31;;;;;;;8.73;2.38;;;;;;;;;;5131650;27;20095;-83
2021/12/20 13:50:57;;;;;;;16.33;2.47;;;;;;;;;;5133134;27;20885;-82
2021/12/20 13:53:30;;;;;;;9.68;1.80;;;;;;;;;;5108376;27;20039;-80
2021/12/20 13:56:01;;;;;;;9.77;1.92;;;;;;;;;;5133380;27;20054;-78
2021/12/20 13:58:27;;;;;;;15.27;2.45;;;;;;;;;;5119021;27;20050;-78
2021/12/20 14:00:54;;;;;;;14.45;2.03;;;;;;;;;;5113710;27;20138;-78
2021/12/20 14:03:20;;;;;;;10.23;1.63;;;;;;;;;;5131413;27;20068;-78
2021/12/20 14:05:47;;;;;;;13.00;2.30;;;;;;;;;;5094412;27;20548;-85
2021/12/20 14:08:22;;;;;;;8.77;2.53;;;;;;;;;;5117756;27;20121;-81
2021/12/20 14:10:49;;;;;;;8.68;2.25;;;;;;;;;;5131394;27;20049;-78
2021/12/20 14:13:25;;;;;;;12.35;2.42;;;;;;;;;;5138619;27;20371;-79
2021/12/20 14:16:01;;;;;;;8.35;1.63;;;;;;;;;;5115081;27;20058;-80
2021/12/20 14:18:33;;;;;;;5.55;1.30;;;;;;;;;;5131310;27;20042;-79
2021/12/20 14:21:01;;;;;;;8.90;1.60;;;;;;;;;;5103572;27;20043;-79
2021/12/20 14:23:32;;;;;;;7.28;1.70;;;;;;;;;;5125578;27;20372;-78
2021/12/20 14:26:01;;;;;;;8.90;1.50;;;;;;;;;;5130052;27;20489;-79
2021/12/20 14:28:28;;;;;;;8.15;1.20;;;;;;;;;;5134614;27;20050;-77
2021/12/20 14:30:59;;;;;;;5.85;1.35;;;;;;;;;;5117153;27;20508;-78
2021/12/20 14:33:30;;;;;;;6.15;0.85;;;;;;;;;;5134477;27;20079;-78
2021/12/20 14:36:08;;;;;;;6.20;0.65;;;;;;;;;;5134375;27;20080;-78
2021/12/20 14:38:35;;;;;;;3.40;1.13;;;;;;;;;;5124018;27;20131;-77
2021/12/20 14:41:22;;;;;;;4.45;1.25;;;;;;;;;;5130153;27;20039;-78
2021/12/20 14:43:49;;;;;;;6.65;0.93;;;;;;;;;;5142577;27;20126;-78
2021/12/20 14:46:28;;;;;;;4.28;1.33;;;;;;;;;;5140753;27;20057;-79
2021/12/20 14:49:04;;;;;;;5.07;0.90;;;;;;;;;;5135601;27;20076;-79
2021/12/20 14:51:32;;;;;;;6.93;1.45;;;;;;;;;;5113531;27;20401;-82
2021/12/20 14:54:18;;;;;;;9.38;1.10;;;;;;;;;;5133350;27;20049;-79
2021/12/20 14:57:02;;;;;;;6.55;1.15;;;;;;;;;;5137593;27;20054;-78
2021/12/20 14:59:29;;;;;;;5.13;1.02;;;;;;;;;;5140597;27;20441;-79
2021/12/20 15:02:00;;;;;;;8.32;1.20;;;;;;;;;;5131725;27;20039;-78
2021/12/20 15:04:26;;;;;;;4.30;1.45;;;;;;;;;;5128431;27;20087;-79